createdAt,value
2023-02-11T00:02:29.772Z,14.60
2023-02-11T00:04:57.961Z,14.88
2023-02-11T00:07:26.176Z,16.40
2023-02-11T00:09:54.423Z,15.35
2023-02-11T00:12:23.910Z,15.77
2023-02-11T00:14:52.086Z,15.57
2023-02-11T00:17:23.544Z,15.50
2023-02-11T00:19:52.344Z,16.20
2023-02-11T00:22:20.586Z,16.40
2023-02-11T00:24:49.009Z,15.63
2023-02-11T00:27:17.305Z,14.02
2023-02-11T00:29:47.094Z,15.00
2023-02-11T00:32:15.206Z,15.40
2023-02-11T00:34:43.361Z,16.00
2023-02-11T00:37:12.269Z,15.80
2023-02-11T00:39:40.422Z,16.10
2023-02-11T00:42:08.525Z,15.23
2023-02-11T00:44:36.638Z,16.08
2023-02-11T00:47:06.238Z,16.42
2023-02-11T00:49:34.428Z,17.25
2023-02-11T00:52:02.571Z,20.00
2023-02-11T00:54:30.701Z,17.88
2023-02-11T00:56:58.828Z,19.67
2023-02-11T00:59:27.085Z,17.98
2023-02-11T01:01:55.325Z,17.92
2023-02-11T01:04:24.893Z,16.63
2023-02-11T01:06:53.016Z,17.25
2023-02-11T01:09:22.047Z,17.35
2023-02-11T01:11:50.159Z,16.35
2023-02-11T01:14:18.246Z,19.25
2023-02-11T01:16:46.536Z,17.02
2023-02-11T01:19:14.748Z,17.10
2023-02-11T01:21:44.314Z,17.98
2023-02-11T01:24:12.442Z,16.92
2023-02-11T01:26:40.611Z,16.60
2023-02-11T01:29:09.586Z,17.70
2023-02-11T01:31:37.803Z,15.43
2023-02-11T01:34:06.010Z,14.68
2023-02-11T01:36:34.140Z,16.67
2023-02-11T01:39:03.635Z,15.00
2023-02-11T01:41:31.749Z,16.30
2023-02-11T01:43:59.887Z,15.57
2023-02-11T01:46:33.291Z,15.40
2023-02-11T01:49:07.261Z,16.05
2023-02-11T01:51:40.014Z,16.88
2023-02-11T01:57:17.354Z,14.45
2023-02-11T02:00:04.021Z,14.48
2023-02-11T02:02:38.234Z,13.18
2023-02-11T02:05:11.232Z,15.18
2023-02-11T02:07:47.332Z,14.35
2023-02-11T02:10:22.264Z,15.52
2023-02-11T02:12:50.491Z,14.38
2023-02-11T02:15:28.503Z,12.18
2023-02-11T02:18:04.986Z,13.32
2023-02-11T02:21:01.728Z,13.52
2023-02-11T02:23:40.340Z,12.30
2023-02-11T02:26:40.073Z,12.32
2023-02-11T02:29:32.579Z,13.95
2023-02-11T02:32:31.582Z,13.00
2023-02-11T02:35:07.116Z,13.30
2023-02-11T02:37:41.764Z,14.18
2023-02-11T02:40:14.205Z,14.73
2023-02-11T02:42:43.390Z,14.32
2023-02-11T02:45:13.865Z,14.10
2023-02-11T02:47:43.378Z,13.52
2023-02-11T02:50:14.617Z,13.93
2023-02-11T02:52:51.328Z,13.65
2023-02-11T02:55:35.163Z,14.88
2023-02-11T02:58:35.770Z,17.08
2023-02-11T03:01:13.647Z,14.35
2023-02-11T03:03:54.965Z,13.30
2023-02-11T03:06:30.988Z,13.25
2023-02-11T03:09:05.672Z,14.23
2023-02-11T03:11:35.562Z,13.02
2023-02-11T03:14:05.862Z,13.00
2023-02-11T03:16:39.337Z,14.38
2023-02-11T03:19:13.811Z,14.10
2023-02-11T03:21:44.775Z,13.27
2023-02-11T03:24:18.072Z,13.38
2023-02-11T03:26:51.316Z,13.80
2023-02-11T03:29:28.700Z,12.77
2023-02-11T03:32:03.986Z,12.70
2023-02-11T03:34:39.872Z,12.88
2023-02-11T03:37:13.337Z,14.73
2023-02-11T03:39:45.802Z,13.18
2023-02-11T03:42:16.393Z,14.55
2023-02-11T03:44:50.619Z,12.35
2023-02-11T03:47:24.256Z,12.15
2023-02-11T03:49:56.716Z,11.30
2023-02-11T03:52:27.924Z,11.90
2023-02-11T03:54:59.328Z,13.35
2023-02-11T03:57:27.413Z,11.70
2023-02-11T03:59:57.481Z,12.27
2023-02-11T04:02:28.737Z,12.77
2023-02-11T04:04:58.685Z,13.00
2023-02-11T04:07:27.431Z,14.52
2023-02-11T04:09:55.810Z,11.93
2023-02-11T04:12:24.089Z,12.02
2023-02-11T04:14:52.227Z,11.80
2023-02-11T04:17:20.353Z,11.48
2023-02-11T04:19:48.513Z,12.30
2023-02-11T04:22:18.022Z,14.80
2023-02-11T04:24:46.137Z,13.23
2023-02-11T04:27:14.259Z,11.70
2023-02-11T04:29:42.409Z,11.93
2023-02-11T04:32:11.326Z,11.95
2023-02-11T04:34:39.858Z,12.10
2023-02-11T04:37:08.523Z,12.27
2023-02-11T04:39:38.299Z,11.75
2023-02-11T04:42:06.847Z,13.55
2023-02-11T04:44:35.229Z,14.73
2023-02-11T04:47:03.322Z,13.45
2023-02-11T04:49:31.423Z,13.93
2023-02-11T04:51:59.497Z,14.77
2023-02-11T04:54:27.637Z,13.88
2023-02-11T04:56:57.173Z,12.85
2023-02-11T04:59:25.317Z,13.82
2023-02-11T05:01:53.411Z,14.52
2023-02-11T05:04:21.666Z,14.65
2023-02-11T05:06:50.018Z,14.77
2023-02-11T05:09:18.355Z,14.35
2023-02-11T05:11:46.456Z,14.45
2023-02-11T05:14:16.013Z,14.50
2023-02-11T05:16:44.214Z,13.63
2023-02-11T05:19:12.603Z,13.35
2023-02-11T05:21:50.314Z,13.60
2023-02-11T05:24:24.935Z,12.23
2023-02-11T05:26:53.079Z,12.15
2023-02-11T05:29:22.741Z,15.70
2023-02-11T05:31:50.876Z,14.05
2023-02-11T05:34:18.928Z,14.98
2023-02-11T05:36:47.102Z,17.25
2023-02-11T05:39:15.239Z,14.65
2023-02-11T05:41:43.349Z,13.48
2023-02-11T05:44:11.501Z,14.00
2023-02-11T05:46:41.135Z,13.98
2023-02-11T05:49:09.380Z,12.45
2023-02-11T05:51:37.501Z,12.15
2023-02-11T05:54:05.940Z,12.63
2023-02-11T05:56:34.090Z,11.95
2023-02-11T05:59:02.264Z,12.98
2023-02-11T06:01:30.632Z,12.75
2023-02-11T06:04:00.370Z,12.40
2023-02-11T06:06:29.439Z,11.82
2023-02-11T06:08:57.654Z,11.77
2023-02-11T06:11:25.735Z,12.05
2023-02-11T06:13:53.984Z,11.20
2023-02-11T06:16:22.190Z,11.63
2023-02-11T06:18:50.302Z,11.60
2023-02-11T06:21:19.816Z,11.13
2023-02-11T06:23:48.002Z,10.98
2023-02-11T06:26:19.702Z,10.70
2023-02-11T06:28:48.276Z,11.48
2023-02-11T06:31:17.414Z,11.75
2023-02-11T06:33:45.813Z,15.07
2023-02-11T06:36:16.113Z,14.18
2023-02-11T06:38:47.324Z,12.32
2023-02-11T06:41:17.721Z,13.10
2023-02-11T06:43:45.812Z,13.10
2023-02-11T06:46:14.206Z,13.02
2023-02-11T06:48:44.822Z,14.05
2023-02-11T06:51:14.747Z,12.25
2023-02-11T06:53:45.742Z,13.82
2023-02-11T06:56:16.784Z,13.45
2023-02-11T06:58:45.346Z,13.40
2023-02-11T07:01:16.150Z,12.55
2023-02-11T07:03:46.916Z,13.48
2023-02-11T07:06:17.605Z,14.75
2023-02-11T07:08:47.748Z,14.07
2023-02-11T07:11:17.760Z,13.98
2023-02-11T07:13:45.905Z,13.07
2023-02-11T07:16:16.462Z,14.82
2023-02-11T07:18:44.909Z,12.88
2023-02-11T07:21:14.956Z,13.40
2023-02-11T07:23:43.629Z,14.52
2023-02-11T07:26:15.636Z,13.88
2023-02-11T07:28:44.539Z,13.77
2023-02-11T07:31:14.374Z,15.20
2023-02-11T07:33:43.230Z,13.85
2023-02-11T07:36:12.160Z,12.30
2023-02-11T07:38:40.661Z,13.95
2023-02-11T07:41:11.756Z,13.77
2023-02-11T07:43:41.668Z,13.20
2023-02-11T07:46:12.672Z,13.40
2023-02-11T07:48:40.859Z,14.02
2023-02-11T07:51:10.741Z,12.00
2023-02-11T07:53:39.162Z,14.65
2023-02-11T07:56:09.120Z,14.15
2023-02-11T07:58:38.042Z,13.15
2023-02-11T08:01:09.724Z,13.35
2023-02-11T08:03:39.287Z,13.70
2023-02-11T08:06:09.213Z,13.68
2023-02-11T08:08:37.599Z,15.00
2023-02-11T08:11:09.172Z,14.13
2023-02-11T08:13:37.633Z,15.73
2023-02-11T08:16:08.670Z,13.48
2023-02-11T08:18:37.627Z,14.07
2023-02-11T08:21:07.077Z,14.88
2023-02-11T08:23:35.461Z,14.23
2023-02-11T08:26:04.121Z,15.40
2023-02-11T08:28:32.551Z,13.98
2023-02-11T08:31:09.038Z,14.55
2023-02-11T08:33:37.825Z,13.95
2023-02-11T08:36:09.990Z,15.68
2023-02-11T08:38:38.470Z,13.85
2023-02-11T08:41:06.742Z,14.70
2023-02-11T08:43:35.004Z,14.77
2023-02-11T08:46:03.217Z,14.05
2023-02-11T08:48:32.806Z,14.75
2023-02-11T08:51:01.175Z,13.90
2023-02-11T08:53:29.290Z,14.02
2023-02-11T08:55:57.462Z,15.07
2023-02-11T08:58:25.557Z,14.35
2023-02-11T09:00:54.054Z,14.75
2023-02-11T09:03:22.366Z,14.38
2023-02-11T09:05:53.436Z,14.75
2023-02-11T09:08:22.327Z,14.38
2023-02-11T09:10:50.762Z,15.27
2023-02-11T09:13:19.108Z,14.05
2023-02-11T09:15:47.643Z,15.02
2023-02-11T09:18:16.044Z,15.25
2023-02-11T09:20:44.131Z,14.55
2023-02-11T09:23:13.744Z,14.80
2023-02-11T09:25:42.379Z,14.35
2023-02-11T09:28:11.674Z,15.98
2023-02-11T09:30:40.098Z,15.45
2023-02-11T09:33:08.309Z,15.32
2023-02-11T09:35:36.474Z,14.50
2023-02-11T09:38:04.589Z,14.57
2023-02-11T09:40:35.163Z,14.63
2023-02-11T09:43:09.016Z,15.52
2023-02-11T09:45:37.179Z,15.10
2023-02-11T09:48:11.919Z,15.40
2023-02-11T09:50:44.775Z,16.42
2023-02-11T09:53:19.437Z,17.00
2023-02-11T09:55:55.915Z,17.20
2023-02-11T09:58:28.080Z,16.45
2023-02-11T10:01:08.790Z,16.35
2023-02-11T10:04:02.449Z,16.52
2023-02-11T10:06:39.990Z,17.70
2023-02-11T10:09:20.081Z,16.33
2023-02-11T10:11:58.279Z,18.02
2023-02-11T10:14:45.491Z,17.38
2023-02-11T10:17:24.332Z,16.85
2023-02-11T10:20:04.740Z,17.30
2023-02-11T10:22:37.338Z,16.42
2023-02-11T10:25:19.772Z,17.48
2023-02-11T10:27:49.954Z,15.55
2023-02-11T10:30:25.480Z,16.45
2023-02-11T10:32:59.021Z,16.35
2023-02-11T10:35:27.621Z,17.75
2023-02-11T10:37:56.542Z,17.23
2023-02-11T10:40:27.656Z,17.33
2023-02-11T10:43:00.709Z,17.33
2023-02-11T10:45:34.400Z,16.75
2023-02-11T10:48:03.117Z,18.20
2023-02-11T10:50:34.971Z,17.63
2023-02-11T10:53:14.665Z,15.63
2023-02-11T10:55:51.786Z,16.80
2023-02-11T10:58:27.872Z,16.95
2023-02-11T11:00:58.162Z,17.02
2023-02-11T11:03:28.787Z,16.23
2023-02-11T11:05:59.847Z,15.18
2023-02-11T11:08:40.842Z,15.10
2023-02-11T11:11:11.684Z,14.35
2023-02-11T11:13:43.492Z,14.75
2023-02-11T11:16:23.530Z,14.80
2023-02-11T11:18:53.763Z,15.68
2023-02-11T11:21:25.178Z,16.63
2023-02-11T11:23:57.264Z,16.70
2023-02-11T11:26:27.269Z,17.08
2023-02-11T11:29:01.155Z,15.10
2023-02-11T11:31:34.763Z,15.73
2023-02-11T11:34:18.698Z,16.02
2023-02-11T11:36:47.217Z,13.20
2023-02-11T11:39:26.134Z,13.63
2023-02-11T11:41:56.708Z,13.88
2023-02-11T11:44:29.975Z,11.82
2023-02-11T11:47:28.338Z,13.55
2023-02-11T11:50:21.208Z,13.10
2023-02-11T11:52:55.836Z,13.40
2023-02-11T11:55:28.410Z,12.70
2023-02-11T11:57:56.606Z,12.45
2023-02-11T12:00:35.575Z,13.10
2023-02-11T12:03:26.200Z,13.23
2023-02-11T12:06:07.537Z,13.50
2023-02-11T12:08:44.505Z,12.95
2023-02-11T12:11:21.842Z,13.05
2023-02-11T12:14:05.155Z,13.60
2023-02-11T12:16:44.593Z,11.63
2023-02-11T12:19:37.197Z,12.48
2023-02-11T12:22:12.550Z,12.43
2023-02-11T12:24:54.312Z,12.35
2023-02-11T12:27:33.715Z,12.20
2023-02-11T12:30:12.332Z,12.25
2023-02-11T12:32:49.401Z,13.13
2023-02-11T12:35:27.706Z,12.80
2023-02-11T12:38:16.361Z,13.80
2023-02-11T12:40:47.645Z,13.13
2023-02-11T12:43:22.473Z,12.18
2023-02-11T12:46:23.573Z,12.88
2023-02-11T12:49:20.982Z,12.43
2023-02-11T12:52:15.804Z,11.82
2023-02-11T12:54:48.510Z,12.55
2023-02-11T12:59:56.804Z,11.65
2023-02-11T13:02:35.785Z,11.57
2023-02-11T13:05:14.276Z,11.32
2023-02-11T13:07:48.467Z,10.93
2023-02-11T13:10:28.482Z,9.85
2023-02-11T13:13:18.767Z,9.95
2023-02-11T13:15:51.609Z,10.20
2023-02-11T13:18:36.020Z,9.93
2023-02-11T13:21:30.932Z,9.50
2023-02-11T13:24:09.756Z,8.88
2023-02-11T13:26:44.241Z,9.02
2023-02-11T13:29:25.892Z,9.07
2023-02-11T13:31:56.733Z,9.70
2023-02-11T13:34:27.683Z,8.52
2023-02-11T13:36:59.641Z,9.30
2023-02-11T13:39:28.237Z,9.43
2023-02-11T13:42:05.845Z,9.98
2023-02-11T13:44:36.181Z,11.10
2023-02-11T13:47:06.731Z,9.43
2023-02-11T13:49:40.992Z,9.00
2023-02-11T13:52:25.396Z,8.85
2023-02-11T13:54:58.862Z,10.30
2023-02-11T13:57:35.353Z,9.60
2023-02-11T14:00:09.814Z,9.75
2023-02-11T14:02:56.211Z,9.75
2023-02-11T14:05:49.877Z,9.85
2023-02-11T14:08:45.307Z,10.32
2023-02-11T14:11:48.493Z,10.77
2023-02-11T14:14:24.068Z,9.95
2023-02-11T14:17:34.216Z,9.57
2023-02-11T14:20:06.058Z,10.32
2023-02-11T14:22:47.324Z,9.20
2023-02-11T14:25:24.085Z,9.40
2023-02-11T14:27:57.583Z,9.80
2023-02-11T14:30:44.478Z,9.65
2023-02-11T14:33:47.453Z,9.77
2023-02-11T14:36:44.955Z,9.82
2023-02-11T14:39:24.245Z,10.02
2023-02-11T14:41:55.069Z,9.82
2023-02-11T14:44:26.724Z,10.48
2023-02-11T14:46:56.770Z,10.57
2023-02-11T14:49:29.410Z,10.20
2023-02-11T14:52:06.703Z,9.82
2023-02-11T14:54:36.795Z,9.18
2023-02-11T14:57:15.152Z,10.57
2023-02-11T14:59:59.238Z,10.45
2023-02-11T15:02:34.111Z,9.73
2023-02-11T15:05:21.606Z,9.73
2023-02-11T15:07:55.810Z,9.75
2023-02-11T15:10:35.013Z,9.30
2023-02-11T15:13:07.209Z,10.23
2023-02-11T15:15:38.201Z,10.25
2023-02-11T15:18:07.377Z,10.23
2023-02-11T15:20:37.482Z,10.13
2023-02-11T15:23:10.209Z,10.23
2023-02-11T15:25:46.862Z,10.55
2023-02-11T15:28:24.284Z,11.15
2023-02-11T15:30:59.820Z,10.77
2023-02-11T15:33:32.868Z,9.50
2023-02-11T15:36:03.148Z,10.25
2023-02-11T15:38:32.114Z,11.45
2023-02-11T15:41:07.725Z,11.43
2023-02-11T15:43:47.004Z,10.38
2023-02-11T15:46:20.186Z,10.52
2023-02-11T15:48:52.822Z,10.45
2023-02-11T15:51:26.266Z,11.25
2023-02-11T15:54:01.114Z,10.30
2023-02-11T15:56:33.963Z,9.90
2023-02-11T16:02:01.750Z,9.32
2023-02-11T16:04:31.428Z,9.27
2023-02-11T16:07:04.261Z,10.13
2023-02-11T16:09:36.917Z,11.45
2023-02-11T16:12:24.438Z,11.40
2023-02-11T16:15:46.028Z,10.52
2023-02-11T16:18:37.392Z,11.18
2023-02-11T16:21:11.377Z,10.90
2023-02-11T16:23:44.134Z,11.05
2023-02-11T16:28:46.042Z,10.00
2023-02-11T16:31:16.851Z,10.05
2023-02-11T16:33:48.195Z,11.65
2023-02-11T16:36:19.135Z,11.18
2023-02-11T16:38:48.120Z,10.73
2023-02-11T16:41:17.987Z,11.93
2023-02-11T16:43:46.876Z,11.88
2023-02-11T16:46:18.728Z,12.32
2023-02-11T16:48:48.839Z,12.55
2023-02-11T16:51:18.573Z,10.70
2023-02-11T16:53:47.831Z,11.02
2023-02-11T16:56:19.765Z,10.98
2023-02-11T16:58:49.392Z,10.88
2023-02-11T17:01:20.810Z,11.20
2023-02-11T17:03:50.808Z,11.63
2023-02-11T17:06:20.665Z,11.20
2023-02-11T17:08:49.807Z,10.48
2023-02-11T17:11:21.386Z,12.02
2023-02-11T17:13:51.258Z,10.68
2023-02-11T17:16:25.480Z,11.93
2023-02-11T17:18:55.497Z,10.27
2023-02-11T17:21:28.210Z,10.55
2023-02-11T17:23:59.205Z,11.00
2023-02-11T17:26:28.284Z,10.65
2023-02-11T17:28:59.342Z,10.20
2023-02-11T17:31:29.774Z,11.05
2023-02-11T17:33:59.429Z,11.23
2023-02-11T17:36:31.991Z,10.65
2023-02-11T17:39:02.088Z,11.85
2023-02-11T17:41:31.758Z,11.30
2023-02-11T17:44:02.023Z,10.20
2023-02-11T17:46:32.577Z,11.40
2023-02-11T17:49:02.592Z,11.60
2023-02-11T17:51:34.541Z,12.30
2023-02-11T17:54:05.965Z,11.30
2023-02-11T17:56:36.864Z,11.90
2023-02-11T17:59:08.552Z,12.65
2023-02-11T18:01:41.485Z,12.10
2023-02-11T18:04:14.408Z,12.10
2023-02-11T18:06:45.575Z,11.48
2023-02-11T18:09:15.729Z,12.10
2023-02-11T18:11:45.553Z,11.60
2023-02-11T18:14:14.656Z,12.32
2023-02-11T18:16:46.553Z,12.90
2023-02-11T18:19:16.624Z,12.60
2023-02-11T18:21:49.377Z,13.07
2023-02-11T18:26:47.553Z,12.52
2023-02-11T18:29:17.259Z,12.45
2023-02-11T18:31:48.710Z,13.13
2023-02-11T18:34:18.748Z,13.57
2023-02-11T18:36:48.393Z,13.65
2023-02-11T18:39:22.213Z,12.20
2023-02-11T18:41:55.607Z,12.85
2023-02-11T18:44:25.348Z,12.90
2023-02-11T18:46:56.631Z,13.50
2023-02-11T18:49:29.115Z,12.45
2023-02-11T18:52:01.431Z,12.07
2023-02-11T18:54:31.687Z,12.82
2023-02-11T18:57:01.067Z,14.02
2023-02-11T18:59:30.538Z,14.30
2023-02-11T19:02:02.683Z,12.77
2023-02-11T19:04:32.122Z,12.70
2023-02-11T19:07:03.785Z,13.02
2023-02-11T19:09:33.565Z,14.10
2023-02-11T19:12:03.445Z,13.77
2023-02-11T19:14:34.843Z,12.10
2023-02-11T19:17:07.771Z,13.02
2023-02-11T19:19:38.225Z,11.52
2023-02-11T19:22:10.530Z,11.82
2023-02-11T19:24:47.520Z,11.63
2023-02-11T19:27:30.790Z,11.80
2023-02-11T19:30:00.685Z,13.23
2023-02-11T19:32:32.473Z,11.85
2023-02-11T19:35:02.406Z,10.73
2023-02-11T19:37:32.095Z,13.02
2023-02-11T19:40:02.956Z,13.00
2023-02-11T19:42:33.589Z,12.50
2023-02-11T19:45:03.482Z,12.55
2023-02-11T19:47:40.008Z,13.70
2023-02-11T19:50:11.215Z,13.38
2023-02-11T19:52:41.542Z,13.38
2023-02-11T19:55:11.274Z,12.73
2023-02-11T19:57:41.341Z,13.60
2023-02-11T20:00:12.787Z,13.38
2023-02-11T20:02:44.362Z,12.20
2023-02-11T20:05:14.442Z,12.00
2023-02-11T20:08:03.657Z,13.32
2023-02-11T20:10:33.283Z,14.30
2023-02-11T20:13:04.383Z,12.07
2023-02-11T20:15:34.009Z,12.73
2023-02-11T20:18:06.259Z,13.80
2023-02-11T20:20:36.065Z,12.73
2023-02-11T20:23:06.147Z,13.73
2023-02-11T20:25:35.868Z,13.60
2023-02-11T20:28:05.913Z,12.70
2023-02-11T20:30:35.029Z,14.10
2023-02-11T20:33:05.256Z,14.60
2023-02-11T20:35:35.476Z,13.30
2023-02-11T20:38:05.308Z,12.73
2023-02-11T20:40:37.520Z,12.95
2023-02-11T20:43:06.955Z,12.18
2023-02-11T20:45:38.116Z,11.38
2023-02-11T20:48:08.922Z,10.38
2023-02-11T20:50:38.922Z,10.10
2023-02-11T20:53:11.385Z,10.98
2023-02-11T20:55:42.121Z,10.98
2023-02-11T20:58:12.784Z,10.30
2023-02-11T21:00:42.330Z,9.95
2023-02-11T21:03:14.059Z,10.23
2023-02-11T21:05:44.306Z,9.40
2023-02-11T21:08:13.531Z,11.07
2023-02-11T21:10:43.483Z,10.45
2023-02-11T21:13:15.485Z,9.63
2023-02-11T21:15:47.854Z,9.90
2023-02-11T21:18:19.422Z,9.98
2023-02-11T21:20:48.493Z,10.43
2023-02-11T21:23:18.292Z,9.25
2023-02-11T21:25:47.681Z,9.88
2023-02-11T21:28:17.571Z,8.95
2023-02-11T21:30:47.584Z,10.27
2023-02-11T21:33:22.309Z,9.45
2023-02-11T21:35:51.365Z,9.88
2023-02-11T21:38:23.572Z,9.95
2023-02-11T21:40:55.909Z,10.93
2023-02-11T21:43:25.583Z,11.23
2023-02-11T21:45:55.087Z,10.48
2023-02-11T21:48:26.307Z,11.88
2023-02-11T21:50:56.660Z,10.68
2023-02-11T21:53:34.912Z,10.25
2023-02-11T21:56:08.264Z,9.93
2023-02-11T21:58:38.799Z,10.48
2023-02-11T22:01:13.266Z,11.50
2023-02-11T22:03:44.628Z,9.90
2023-02-11T22:06:14.793Z,10.65
2023-02-11T22:08:44.250Z,10.15
2023-02-11T22:11:14.129Z,10.60
2023-02-11T22:13:42.982Z,9.88
2023-02-11T22:16:13.515Z,10.48
2023-02-11T22:18:45.917Z,10.07
2023-02-11T22:21:15.795Z,10.32
2023-02-11T22:23:44.403Z,10.13
2023-02-11T22:26:15.198Z,11.13
2023-02-11T22:28:43.968Z,9.88
2023-02-11T22:31:13.784Z,10.55
2023-02-11T22:33:44.211Z,11.02
2023-02-11T22:36:16.787Z,11.98
2023-02-11T22:38:45.141Z,12.07
2023-02-11T22:41:13.881Z,11.75
2023-02-11T22:43:44.217Z,11.98
2023-02-11T22:46:15.872Z,11.15
2023-02-11T22:48:45.525Z,11.07
2023-02-11T22:51:16.091Z,11.90
2023-02-11T22:53:44.833Z,11.32
2023-02-11T22:56:15.753Z,11.85
2023-02-11T22:58:44.527Z,11.13
2023-02-11T23:01:13.893Z,10.82
2023-02-11T23:03:42.211Z,12.48
2023-02-11T23:06:12.232Z,11.60
2023-02-11T23:08:42.996Z,10.80
2023-02-11T23:11:13.452Z,10.88
2023-02-11T23:13:42.998Z,11.20
2023-02-11T23:16:15.245Z,11.45
2023-02-11T23:18:45.227Z,10.70
2023-02-11T23:21:17.252Z,12.07
2023-02-11T23:23:46.406Z,10.38
2023-02-11T23:26:17.220Z,11.75
2023-02-11T23:28:46.379Z,11.57
2023-02-11T23:31:18.884Z,10.68
2023-02-11T23:33:47.774Z,12.00
2023-02-11T23:36:17.946Z,11.38
2023-02-11T23:38:46.717Z,11.73
2023-02-11T23:41:15.836Z,12.65
2023-02-11T23:43:43.991Z,10.68
2023-02-11T23:46:12.899Z,11.65
2023-02-11T23:48:41.563Z,11.57
2023-02-11T23:51:10.759Z,11.55
2023-02-11T23:53:40.869Z,11.75
2023-02-11T23:56:10.597Z,10.77
2023-02-11T23:58:39.074Z,11.68
